Time;durP1;ratioP1;P1;durP2;ratioP2;P2;SDS_P1;SDS_P2;PMS_P1;PMS_P2;Temp;Humidity;BMP_temperature;BMP_pressure;BME280_temperature;BME280_humidity;BME280_pressure;Samples;Min_cycle;Max_cycle;Signal;HPM_P1;HPM_P2
2024/01/09 00:03:41;;;;;;;17.02;7.70;;;;;;;-2.77;67.84;102138.91;8451965;28;20040;-55
2024/01/09 00:07:42;;;;;;;19.98;7.78;;;;;;;-2.80;67.34;102144.25;8453304;28;20489;-55
2024/01/09 00:11:42;;;;;;;15.70;7.20;;;;;;;-2.85;68.42;102140.75;8455575;28;20039;-55
2024/01/09 00:15:43;;;;;;;20.73;7.57;;;;;;;-2.92;68.81;102136.44;8455507;28;20074;-56
2024/01/09 00:19:44;;;;;;;15.23;6.55;;;;;;;-2.95;68.88;102141.75;8457469;28;20154;-55
2024/01/09 00:23:44;;;;;;;17.83;7.70;;;;;;;-2.96;69.19;102132.09;8456836;28;20040;-57
2024/01/09 00:27:46;;;;;;;15.82;7.28;;;;;;;-3.02;69.55;102132.16;8456257;28;20036;-56
2024/01/09 00:31:46;;;;;;;19.40;7.68;;;;;;;-3.08;69.64;102129.56;8414705;27;20163;-56
2024/01/09 00:35:47;;;;;;;19.00;7.32;;;;;;;-3.12;70.24;102122.53;8402076;28;20762;-55
2024/01/09 00:39:50;;;;;;;15.55;7.22;;;;;;;-3.14;70.17;102126.97;8402375;28;20254;-55
2024/01/09 00:43:50;;;;;;;19.27;7.20;;;;;;;-3.21;70.17;102119.97;8397990;28;20596;-55
2024/01/09 00:47:51;;;;;;;16.13;7.32;;;;;;;-3.24;70.42;102133.22;8367887;28;20158;-55
2024/01/09 00:51:51;;;;;;;13.05;6.35;;;;;;;-3.26;70.76;102127.09;8399925;28;20264;-56
2024/01/09 00:55:52;;;;;;;14.50;7.85;;;;;;;-3.22;70.66;102128.81;8358609;28;20738;-56
2024/01/09 00:59:53;;;;;;;16.63;7.45;;;;;;;-3.24;71.52;102131.47;8400244;28;20105;-57
2024/01/09 01:03:53;;;;;;;15.60;6.93;;;;;;;-3.28;72.17;102129.75;8416359;28;20259;-56
2024/01/09 01:07:53;;;;;;;14.77;8.15;;;;;;;-3.29;72.69;102132.41;8414440;28;20043;-57
2024/01/09 01:11:54;;;;;;;18.40;7.32;;;;;;;-3.37;73.53;102128.97;8403080;28;20454;-56
2024/01/09 01:15:54;;;;;;;15.10;6.68;;;;;;;-3.40;72.20;102136.91;8400885;28;20537;-56
2024/01/09 01:19:55;;;;;;;17.50;7.30;;;;;;;-3.45;72.15;102144.88;8399826;28;20335;-56
2024/01/09 01:23:55;;;;;;;14.15;6.93;;;;;;;-3.40;72.13;102143.09;8396235;28;20042;-56
2024/01/09 01:27:55;;;;;;;15.18;6.80;;;;;;;-3.41;71.53;102137.81;8400026;28;20044;-56
2024/01/09 01:31:56;;;;;;;14.88;7.05;;;;;;;-3.49;71.56;102142.28;8399345;28;20063;-55
2024/01/09 01:35:56;;;;;;;14.90;6.65;;;;;;;-3.46;71.77;102139.63;8408888;28;20114;-58
2024/01/09 01:39:57;;;;;;;17.25;7.60;;;;;;;-3.47;72.24;102137.88;8454527;28;20044;-58
2024/01/09 01:43:57;;;;;;;12.45;6.65;;;;;;;-3.51;72.04;102136.16;8454607;28;20122;-58
2024/01/09 01:48:00;;;;;;;13.05;6.25;;;;;;;-3.50;71.65;102138.78;8453237;28;20031;-58
2024/01/09 01:52:01;;;;;;;17.77;7.03;;;;;;;-3.52;72.34;102134.38;8399361;28;20407;-56
2024/01/09 01:56:01;;;;;;;14.20;6.65;;;;;;;-3.58;72.30;102134.44;8380543;28;20500;-55
2024/01/09 02:00:03;;;;;;;16.52;7.22;;;;;;;-3.61;72.77;102137.09;8399336;28;20058;-56
2024/01/09 02:04:23;;;;;;;13.93;6.35;;;;;;;-3.63;72.22;102133.59;8225519;27;20381;-56
2024/01/09 02:08:28;;;;;;;13.65;6.68;;;;;;;-3.67;72.90;102138.03;8231065;28;20239;-51
2024/01/09 02:12:29;;;;;;;15.52;7.25;;;;;;;-3.69;73.07;102131.03;8229833;28;20045;-53
2024/01/09 02:16:29;;;;;;;14.18;7.47;;;;;;;-3.71;73.64;102127.50;8235163;28;20152;-55
2024/01/09 02:20:30;;;;;;;18.08;6.72;;;;;;;-3.71;73.92;102127.50;8271375;28;20045;-54
2024/01/09 02:24:30;;;;;;;15.50;6.55;;;;;;;-3.81;73.97;102110.88;8269480;28;20364;-54
2024/01/09 02:28:36;;;;;;;15.88;7.68;;;;;;;-3.82;73.49;102113.53;8273841;28;20261;-56
2024/01/09 02:32:36;;;;;;;14.65;7.10;;;;;;;-3.86;73.52;102120.56;8325834;28;20048;-56
2024/01/09 02:36:37;;;;;;;20.83;7.50;;;;;;;-3.86;74.15;102122.34;8350888;28;20045;-56
2024/01/09 02:40:38;;;;;;;18.00;7.82;;;;;;;-3.89;73.71;102122.34;8328729;28;20044;-57
2024/01/09 02:44:39;;;;;;;20.40;7.20;;;;;;;-3.88;74.10;102118.84;8328807;28;20057;-54
2024/01/09 02:48:39;;;;;;;16.02;7.05;;;;;;;-3.87;74.05;102128.50;8333424;28;20041;-56
2024/01/09 02:52:41;;;;;;;17.00;6.65;;;;;;;-3.92;74.31;102123.25;8326052;28;20503;-54
2024/01/09 02:56:42;;;;;;;15.90;7.47;;;;;;;-3.92;74.49;102119.72;8328622;28;20048;-56
2024/01/09 03:00:42;;;;;;;14.82;7.18;;;;;;;-3.96;74.51;102121.53;8327688;28;20312;-55
2024/01/09 03:04:42;;;;;;;16.90;7.32;;;;;;;-3.99;74.86;102118.03;8331841;28;20045;-56
2024/01/09 03:08:43;;;;;;;13.35;6.22;;;;;;;-4.06;75.10;102120.72;8343100;28;20179;-56
2024/01/09 03:12:43;;;;;;;15.75;6.40;;;;;;;-4.03;74.78;102115.41;8320950;28;20041;-56
2024/01/09 03:16:48;;;;;;;18.60;6.97;;;;;;;-4.02;75.12;102117.16;8305375;28;20042;-56
2024/01/09 03:20:48;;;;;;;17.92;7.80;;;;;;;-4.03;75.61;102108.38;8300348;28;20127;-57
2024/01/09 03:24:48;;;;;;;15.40;6.75;;;;;;;-4.09;75.04;102099.59;8244123;28;20306;-57
2024/01/09 03:28:49;;;;;;;13.57;7.03;;;;;;;-3.96;75.16;102115.38;8252179;28;21532;-55
2024/01/09 03:32:49;;;;;;;17.50;7.43;;;;;;;-3.99;75.26;102115.41;8209187;28;20733;-55
2024/01/09 03:36:50;;;;;;;15.77;7.57;;;;;;;-4.03;75.45;102110.13;8208008;28;20360;-57
2024/01/09 03:40:50;;;;;;;20.33;7.90;;;;;;;-4.11;75.19;102114.56;8207453;28;20246;-56
2024/01/09 03:44:51;;;;;;;17.38;7.03;;;;;;;-4.15;75.84;102106.69;8205796;28;20262;-55
2024/01/09 03:48:51;;;;;;;12.05;6.80;;;;;;;-4.14;76.11;102106.66;8214300;28;20333;-56
2024/01/09 03:52:52;;;;;;;16.42;7.65;;;;;;;-4.19;76.28;102107.59;8247348;28;20057;-56
2024/01/09 03:56:52;;;;;;;20.65;7.40;;;;;;;-4.15;76.17;102102.28;8254062;28;20037;-57
2024/01/09 04:00:53;;;;;;;16.88;6.93;;;;;;;-4.16;75.47;102091.75;8298086;28;20172;-55
2024/01/09 04:04:53;;;;;;;17.65;8.20;;;;;;;-4.15;75.57;102107.56;8310117;28;20518;-55
2024/01/09 04:08:54;;;;;;;18.75;7.03;;;;;;;-4.18;76.17;102097.03;8309223;28;20045;-56
2024/01/09 04:12:54;;;;;;;17.83;7.68;;;;;;;-4.16;76.33;102097.03;8311875;28;20037;-56
2024/01/09 04:16:56;;;;;;;18.27;8.43;;;;;;;-4.14;76.53;102090.84;8304285;28;20041;-56
2024/01/09 04:20:56;;;;;;;19.48;7.65;;;;;;;-4.16;76.13;102103.19;8304305;28;20080;-55
2024/01/09 04:24:58;;;;;;;16.65;7.13;;;;;;;-4.21;76.78;102104.97;8304831;28;20274;-55
2024/01/09 04:28:58;;;;;;;18.83;6.82;;;;;;;-4.19;76.34;102107.59;8309567;28;20095;-56
2024/01/09 04:32:59;;;;;;;18.40;7.90;;;;;;;-4.19;76.38;102102.31;8306813;28;20041;-55
2024/01/09 04:36:59;;;;;;;16.90;7.57;;;;;;;-4.19;76.89;102102.31;8305771;28;20445;-56
2024/01/09 04:41:01;;;;;;;20.70;7.43;;;;;;;-4.23;76.15;102104.13;8308706;28;20455;-55
2024/01/09 04:45:01;;;;;;;15.23;7.55;;;;;;;-4.24;76.54;102097.06;8308681;28;20521;-55
2024/01/09 04:49:04;;;;;;;18.23;7.90;;;;;;;-4.23;76.17;102100.59;8306435;28;20380;-55
2024/01/09 04:53:04;;;;;;;16.17;7.67;;;;;;;-4.14;76.38;102103.19;8284380;28;20500;-56
2024/01/09 04:57:05;;;;;;;19.25;8.13;;;;;;;-4.15;76.38;102104.94;8252927;28;20099;-57
2024/01/09 05:01:11;;;;;;;17.15;7.82;;;;;;;-4.23;76.75;102101.47;8209201;28;20054;-57
2024/01/09 05:05:11;;;;;;;20.17;7.35;;;;;;;-4.39;77.67;102105.06;8252458;28;20633;-57
2024/01/09 05:09:12;;;;;;;15.57;7.32;;;;;;;-4.38;77.60;102104.22;8249963;28;20345;-57
2024/01/09 05:13:12;;;;;;;15.52;8.20;;;;;;;-4.37;79.15;102098.03;8246788;28;20026;-56
2024/01/09 05:17:13;;;;;;;19.13;6.95;;;;;;;-4.51;78.31;102094.59;8248700;28;20029;-56
2024/01/09 05:21:14;;;;;;;22.05;8.23;;;;;;;-4.51;79.63;102099.88;8269097;28;20056;-56
2024/01/09 05:25:14;;;;;;;15.00;7.47;;;;;;;-4.53;80.14;102090.22;8297867;28;20329;-55
2024/01/09 05:29:15;;;;;;;16.23;7.75;;;;;;;-4.73;81.64;102090.31;8303689;28;20037;-55
2024/01/09 05:33:15;;;;;;;19.77;7.72;;;;;;;-4.86;81.66;102100.91;8300350;28;20072;-55
2024/01/09 05:37:16;;;;;;;16.80;7.30;;;;;;;-4.87;82.16;102078.06;8304413;28;20048;-55
2024/01/09 05:41:21;;;;;;;18.40;7.47;;;;;;;-4.97;82.33;102095.66;8296865;28;20045;-55
2024/01/09 05:45:22;;;;;;;17.88;7.60;;;;;;;-4.90;82.32;102093.91;8300806;28;20041;-56
2024/01/09 05:49:22;;;;;;;20.20;8.05;;;;;;;-4.93;81.85;102093.91;8303171;28;20112;-55
2024/01/09 05:53:23;;;;;;;14.98;6.78;;;;;;;-4.93;81.87;102093.91;8292201;28;20045;-56
2024/01/09 05:57:23;;;;;;;18.40;7.82;;;;;;;-4.95;81.97;102100.94;8310923;28;20470;-56
2024/01/09 06:01:24;;;;;;;21.13;8.15;;;;;;;-4.91;81.73;102093.00;8302290;28;20518;-57
2024/01/09 06:05:24;;;;;;;20.08;8.00;;;;;;;-4.94;81.90;102093.03;8315712;28;20039;-56
2024/01/09 06:09:25;;;;;;;21.38;8.57;;;;;;;-4.91;81.83;102092.16;8311418;28;20492;-55
2024/01/09 06:13:25;;;;;;;20.33;7.93;;;;;;;-4.92;81.64;102104.47;8327867;28;20045;-55
2024/01/09 06:17:26;;;;;;;19.52;8.27;;;;;;;-4.88;81.31;102093.00;8316950;28;20147;-56
2024/01/09 06:21:26;;;;;;;18.67;7.53;;;;;;;-5.04;82.43;102101.84;8310032;28;20041;-56
2024/01/09 06:25:26;;;;;;;17.58;7.88;;;;;;;-5.07;83.09;102120.31;8258289;28;20680;-58
2024/01/09 06:29:29;;;;;;;16.40;7.93;;;;;;;-5.14;84.05;102105.41;8286566;28;20042;-56
2024/01/09 06:33:29;;;;;;;16.80;7.15;;;;;;;-5.37;83.72;102115.09;8293947;28;20049;-55
2024/01/09 06:37:31;;;;;;;16.65;8.15;;;;;;;-5.41;83.77;102116.00;8329075;28;20391;-56
2024/01/09 06:41:31;;;;;;;17.80;7.38;;;;;;;-5.36;83.42;102108.97;8315402;28;20056;-54
2024/01/09 06:45:32;;;;;;;16.02;7.95;;;;;;;-5.54;84.13;102103.72;8307843;28;20045;-54
2024/01/09 06:49:34;;;;;;;18.10;7.57;;;;;;;-5.53;83.99;102116.00;8312723;28;20037;-55
2024/01/09 06:53:34;;;;;;;18.23;7.97;;;;;;;-5.50;84.18;102108.09;8303398;28;20541;-54
2024/01/09 06:57:35;;;;;;;17.33;8.07;;;;;;;-5.60;83.34;102109.00;8316498;28;20488;-55
2024/01/09 07:01:35;;;;;;;18.65;8.63;;;;;;;-5.53;83.82;102100.22;8307261;28;20116;-56
2024/01/09 07:05:36;;;;;;;16.08;7.68;;;;;;;-5.28;83.39;102117.72;8314339;28;20076;-54
2024/01/09 07:09:38;;;;;;;19.27;8.27;;;;;;;-5.15;81.06;102114.22;8324238;28;20510;-55
2024/01/09 07:13:39;;;;;;;22.63;7.53;;;;;;;-5.03;80.33;102119.41;8314207;28;20068;-56
2024/01/09 07:17:39;;;;;;;17.02;7.63;;;;;;;-4.96;80.05;102126.44;8323659;28;20044;-56
2024/01/09 07:21:39;;;;;;;16.75;7.30;;;;;;;-4.92;81.12;102122.91;8323149;28;20502;-56
2024/01/09 07:25:40;;;;;;;18.25;7.07;;;;;;;-4.91;81.05;102129.94;8322657;28;20136;-55
2024/01/09 07:29:40;;;;;;;17.25;7.45;;;;;;;-4.98;82.65;102128.19;8322973;28;20099;-55
2024/01/09 07:33:41;;;;;;;15.10;6.30;;;;;;;-5.03;82.19;102129.97;8323026;28;20037;-54
2024/01/09 07:37:42;;;;;;;18.73;7.75;;;;;;;-4.93;81.08;102123.81;8322931;28;20041;-54
2024/01/09 07:41:43;;;;;;;13.68;6.63;;;;;;;-4.96;79.49;102139.63;8315834;28;20104;-55
2024/01/09 07:45:44;;;;;;;16.75;7.90;;;;;;;-4.89;79.34;102133.44;8308105;28;20045;-55
2024/01/09 07:49:45;;;;;;;15.35;7.32;;;;;;;-4.88;79.67;102135.19;8308415;28;20037;-54
2024/01/09 07:53:45;;;;;;;15.55;6.40;;;;;;;-4.83;79.62;102143.97;8322085;28;20132;-55
2024/01/09 07:57:46;;;;;;;20.58;7.47;;;;;;;-4.84;79.57;102142.25;8322177;28;20116;-55
2024/01/09 08:01:51;;;;;;;20.58;7.75;;;;;;;-4.83;79.58;102149.25;8320789;28;20118;-55
2024/01/09 08:05:51;;;;;;;17.20;7.70;;;;;;;-4.74;79.48;102149.22;8316873;28;20029;-55
2024/01/09 08:09:52;;;;;;;17.30;7.78;;;;;;;-4.79;80.76;102151.00;8311215;28;20092;-55
2024/01/09 08:13:52;;;;;;;18.23;8.05;;;;;;;-4.72;81.37;102144.84;8307001;28;20403;-55
2024/01/09 08:17:53;;;;;;;12.90;7.10;;;;;;;-4.60;80.49;102147.41;8319663;28;20029;-55
2024/01/09 08:21:53;;;;;;;15.77;7.18;;;;;;;-4.55;80.75;102148.25;8320632;28;20061;-55
2024/01/09 08:25:54;;;;;;;22.15;7.78;;;;;;;-4.46;80.91;102150.88;8319567;28;20041;-56
2024/01/09 08:29:54;;;;;;;20.52;8.10;;;;;;;-4.41;80.38;102149.09;8321422;28;20037;-54
2024/01/09 08:33:55;;;;;;;18.33;7.07;;;;;;;-4.29;79.85;102154.31;8321230;28;20037;-54
2024/01/09 08:37:55;;;;;;;17.95;7.50;;;;;;;-4.17;78.95;102151.56;8306959;28;20045;-55
2024/01/09 08:41:56;;;;;;;17.35;6.95;;;;;;;-4.02;78.11;102162.03;8305763;28;20125;-56
2024/01/09 08:45:56;;;;;;;19.83;7.47;;;;;;;-3.87;77.04;102149.66;8304010;28;20042;-56
2024/01/09 08:49:57;;;;;;;18.77;7.53;;;;;;;-3.00;74.71;102162.97;8307445;28;20096;-56
2024/01/09 08:53:57;;;;;;;25.83;7.32;;;;;;;-1.49;69.27;102158.28;8313883;28;20091;-55
2024/01/09 08:57:57;;;;;;;17.30;7.05;;;;;;;-0.49;64.86;102156.38;8304801;28;20420;-56
2024/01/09 09:01:58;;;;;;;15.38;6.85;;;;;;;-0.01;62.96;102144.72;8306067;28;20095;-55
2024/01/09 09:05:58;;;;;;;17.58;6.55;;;;;;;0.58;60.74;102155.75;8303621;28;20203;-55
2024/01/09 09:09:59;;;;;;;10.85;6.13;;;;;;;1.23;59.21;102160.22;8304192;28;20056;-55
2024/01/09 09:14:00;;;;;;;11.90;6.03;;;;;;;1.76;58.14;102152.44;8305023;28;20057;-56
2024/01/09 09:18:01;;;;;;;11.70;5.95;;;;;;;1.38;58.39;102157.13;8302350;28;20029;-54
2024/01/09 09:22:01;;;;;;;13.05;6.47;;;;;;;1.92;57.63;102156.41;8318602;28;20103;-55
2024/01/09 09:26:03;;;;;;;9.93;5.93;;;;;;;1.67;56.00;102154.50;8301261;28;20423;-55
2024/01/09 09:30:04;;;;;;;13.10;6.50;;;;;;;2.18;56.41;102154.72;8303097;28;20030;-55
2024/01/09 09:34:04;;;;;;;12.35;5.75;;;;;;;1.97;56.81;102153.59;8304983;28;20084;-55
2024/01/09 09:38:05;;;;;;;14.55;5.75;;;;;;;2.26;55.28;102148.25;8303270;28;20036;-56
2024/01/09 09:42:07;;;;;;;11.43;5.75;;;;;;;2.46;54.65;102143.13;8303727;28;20053;-56
2024/01/09 09:46:17;;;;;;;12.10;5.55;;;;;;;2.46;53.89;102161.81;8304752;28;20090;-56
2024/01/09 09:50:19;;;;;;;11.98;5.47;;;;;;;2.86;53.39;102154.22;8325795;28;20084;-55
2024/01/09 09:54:22;;;;;;;12.55;6.45;;;;;;;3.49;52.21;102146.63;8304305;28;20033;-55
2024/01/09 09:58:22;;;;;;;11.43;6.05;;;;;;;3.33;52.41;102145.41;8306084;28;20034;-55
2024/01/09 10:02:25;;;;;;;13.18;6.20;;;;;;;3.24;53.11;102151.13;8302850;28;20038;-55
2024/01/09 10:06:28;;;;;;;15.48;6.00;;;;;;;3.93;51.51;102142.25;8303713;28;20103;-55
2024/01/09 10:10:28;;;;;;;11.73;6.07;;;;;;;4.24;50.79;102142.78;8301504;28;20049;-55
2024/01/09 10:14:29;;;;;;;12.02;6.15;;;;;;;3.86;50.91;102138.09;8302809;28;20144;-55
2024/01/09 10:18:31;;;;;;;12.15;5.80;;;;;;;4.66;49.76;102134.84;8300125;28;20037;-56
2024/01/09 10:22:35;;;;;;;11.85;5.53;;;;;;;5.15;49.37;102123.75;8299807;28;20069;-56
2024/01/09 10:26:35;;;;;;;11.50;6.05;;;;;;;5.47;49.61;102117.84;8306375;28;20040;-57
2024/01/09 10:30:37;;;;;;;14.15;6.28;;;;;;;4.85;48.68;102119.75;8306777;28;20038;-55
2024/01/09 10:34:38;;;;;;;8.48;5.40;;;;;;;5.17;49.02;102111.16;8307948;28;20045;-56
2024/01/09 10:38:38;;;;;;;12.18;5.72;;;;;;;4.54;49.45;102109.44;8310130;28;20121;-56
2024/01/09 10:42:47;;;;;;;14.23;6.43;;;;;;;4.90;48.46;102115.03;8309956;28;20461;-56
2024/01/09 10:46:48;;;;;;;11.07;6.25;;;;;;;5.40;48.66;102103.00;8308639;28;20034;-56
2024/01/09 10:50:51;;;;;;;17.60;5.75;;;;;;;4.36;50.19;102109.34;8308735;28;20064;-56
2024/01/09 10:54:53;;;;;;;13.50;5.90;;;;;;;4.29;49.88;102107.81;8307474;28;20048;-56
2024/01/09 10:58:53;;;;;;;12.30;5.72;;;;;;;3.82;50.47;102091.00;8310003;28;20081;-55
2024/01/09 11:02:54;;;;;;;10.07;5.93;;;;;;;3.34;51.34;102087.50;8308121;28;20044;-56
2024/01/09 11:06:55;;;;;;;12.63;5.20;;;;;;;3.80;50.28;102093.72;8308142;28;20038;-56
2024/01/09 11:10:56;;;;;;;12.88;5.68;;;;;;;4.44;49.28;102091.13;8310108;28;20339;-56
2024/01/09 11:15:21;;;;;;;9.73;5.50;;;;;;;3.98;48.83;102090.34;8305863;28;20061;-56
2024/01/09 11:19:23;;;;;;;13.23;5.80;;;;;;;4.51;49.10;102074.75;8307133;28;20045;-55
2024/01/09 11:23:52;;;;;;;10.82;5.20;;;;;;;3.61;48.38;102076.66;8306027;28;20044;-56
2024/01/09 11:27:53;;;;;;;14.27;5.55;;;;;;;3.23;50.40;102063.84;8306695;28;20049;-55
2024/01/09 11:31:54;;;;;;;7.90;4.55;;;;;;;3.75;49.75;102058.25;8308058;28;20499;-56
2024/01/09 11:35:54;;;;;;;12.27;5.40;;;;;;;3.83;48.87;102061.50;8307129;28;20468;-55
2024/01/09 11:39:58;;;;;;;11.25;5.65;;;;;;;4.15;49.05;102062.03;8306371;28;20045;-56
2024/01/09 11:44:01;;;;;;;16.75;5.90;;;;;;;4.11;48.59;102044.34;8305303;28;20046;-55
2024/01/09 11:48:02;;;;;;;10.20;6.00;;;;;;;3.88;49.16;102042.59;8307920;28;20076;-56
2024/01/09 11:52:04;;;;;;;11.68;5.20;;;;;;;3.37;49.49;102028.56;8306606;28;20042;-55
2024/01/09 11:56:05;;;;;;;12.63;5.45;;;;;;;3.50;50.13;102025.38;8306565;28;20034;-56
2024/01/09 12:00:07;;;;;;;11.80;5.05;;;;;;;4.05;49.29;102027.59;8308046;28;20040;-55
2024/01/09 12:04:07;;;;;;;9.25;4.25;;;;;;;4.58;47.17;102019.13;8304829;28;20067;-56
2024/01/09 12:08:08;;;;;;;10.15;4.70;;;;;;;4.47;46.44;102022.25;8306681;28;20038;-56
2024/01/09 12:12:10;;;;;;;11.70;5.00;;;;;;;4.40;47.51;102010.09;8307037;28;20037;-57
2024/01/09 12:16:18;;;;;;;13.13;5.85;;;;;;;3.76;48.39;102000.28;8305247;28;20046;-56
2024/01/09 12:20:20;;;;;;;11.52;6.78;;;;;;;2.56;50.45;102000.41;8304446;28;20075;-56
2024/01/09 12:24:21;;;;;;;9.40;5.25;;;;;;;1.98;50.72;102001.53;8300893;28;20172;-56
2024/01/09 12:28:21;;;;;;;11.75;5.50;;;;;;;1.59;51.88;102004.63;8306201;28;20084;-55
2024/01/09 12:32:22;;;;;;;9.38;5.18;;;;;;;1.42;51.84;101994.47;8302330;28;20041;-55
2024/01/09 12:36:27;;;;;;;10.30;4.90;;;;;;;1.56;51.57;101996.72;8310203;28;20044;-55
2024/01/09 12:40:28;;;;;;;9.68;4.32;;;;;;;1.49;51.79;101985.38;8309105;28;20077;-55
2024/01/09 12:44:29;;;;;;;10.70;5.63;;;;;;;1.34;53.97;101980.50;8314672;28;20041;-56
2024/01/09 12:48:30;;;;;;;14.27;5.57;;;;;;;1.38;54.38;101971.53;8312001;28;20042;-55
2024/01/09 12:52:31;;;;;;;10.55;4.95;;;;;;;1.40;54.07;101959.00;8309434;28;20499;-55
2024/01/09 12:56:32;;;;;;;10.57;4.70;;;;;;;1.32;53.54;101954.84;8312637;28;20037;-54
2024/01/09 13:00:33;;;;;;;12.15;5.47;;;;;;;1.37;54.03;101969.75;8303987;28;20034;-54
2024/01/09 13:04:33;;;;;;;10.98;5.63;;;;;;;1.41;54.63;101954.56;8304768;28;20049;-55
2024/01/09 13:08:34;;;;;;;8.77;4.68;;;;;;;1.32;54.05;101949.53;8306081;28;20042;-55
2024/01/09 13:12:35;;;;;;;13.63;5.15;;;;;;;1.24;53.76;101954.19;8300289;28;20030;-56
2024/01/09 13:16:35;;;;;;;16.50;6.07;;;;;;;1.22;54.11;101950.72;8312446;28;20476;-55
2024/01/09 13:20:36;;;;;;;12.63;5.38;;;;;;;1.26;54.59;101947.94;8305988;28;20060;-57
2024/01/09 13:24:36;;;;;;;10.02;5.32;;;;;;;1.38;54.18;101954.66;8300416;28;20049;-56
2024/01/09 13:28:37;;;;;;;10.68;5.75;;;;;;;1.36;54.23;101951.16;8305323;28;20054;-57
2024/01/09 13:32:38;;;;;;;11.05;5.55;;;;;;;1.40;53.64;101948.34;8302975;28;20045;-56
2024/01/09 13:36:38;;;;;;;12.63;5.20;;;;;;;1.36;54.08;101951.16;8294631;28;20044;-57
2024/01/09 13:40:39;;;;;;;10.57;5.40;;;;;;;1.32;54.06;101944.19;8302511;28;20052;-55
2024/01/09 13:44:40;;;;;;;12.70;5.10;;;;;;;1.32;53.73;101938.88;8303896;28;20076;-56
2024/01/09 13:48:42;;;;;;;16.63;5.53;;;;;;;1.33;53.98;101941.47;8325700;28;20411;-56
2024/01/09 13:52:42;;;;;;;12.93;5.30;;;;;;;1.32;53.99;101928.22;8305309;28;20091;-57
2024/01/09 13:56:43;;;;;;;11.98;5.45;;;;;;;1.25;54.36;101934.66;8317572;28;20041;-58
2024/01/09 14:00:43;;;;;;;10.13;6.13;;;;;;;1.28;54.57;101932.75;8324590;28;20033;-57
2024/01/09 14:04:44;;;;;;;11.10;5.57;;;;;;;1.31;55.37;101937.13;8319318;28;20041;-57
2024/01/09 14:08:46;;;;;;;12.43;5.72;;;;;;;1.26;54.74;101931.94;8333491;28;20051;-55
2024/01/09 14:12:46;;;;;;;13.05;5.70;;;;;;;1.30;55.78;101924.72;8322658;28;20053;-56
2024/01/09 14:16:47;;;;;;;9.85;5.57;;;;;;;1.31;54.82;101923.81;8324957;28;20119;-56
2024/01/09 14:20:47;;;;;;;9.73;4.85;;;;;;;1.35;54.62;101923.66;8323325;28;20422;-55
2024/01/09 14:24:47;;;;;;;10.05;4.75;;;;;;;1.37;55.01;101926.28;8317759;28;20030;-57
2024/01/09 14:28:48;;;;;;;11.60;5.35;;;;;;;1.39;55.14;101919.09;8312593;28;20517;-57
2024/01/09 14:32:50;;;;;;;10.18;5.65;;;;;;;1.36;54.83;101913.88;8311142;28;20041;-58
2024/01/09 14:36:50;;;;;;;13.23;5.82;;;;;;;1.34;55.71;101910.41;8310724;28;20102;-57
2024/01/09 14:40:50;;;;;;;10.15;5.13;;;;;;;1.29;55.19;101909.66;8313236;28;20504;-57
2024/01/09 14:44:54;;;;;;;12.15;6.20;;;;;;;1.31;55.67;101905.16;8315214;28;20220;-56
2024/01/09 14:48:55;;;;;;;12.48;5.15;;;;;;;1.32;56.11;101896.25;8313899;28;20109;-56
2024/01/09 14:52:55;;;;;;;10.45;5.47;;;;;;;1.26;55.61;101899.09;8299729;28;20257;-57
2024/01/09 14:56:57;;;;;;;10.63;5.28;;;;;;;1.27;55.48;101899.06;8316127;28;20463;-56
2024/01/09 15:00:58;;;;;;;12.27;5.90;;;;;;;1.18;55.74;101894.00;8328638;28;20488;-55
2024/01/09 15:04:59;;;;;;;9.95;5.05;;;;;;;1.09;56.50;101896.06;8304262;28;20543;-56
2024/01/09 15:08:59;;;;;;;10.02;5.18;;;;;;;1.07;56.17;101892.59;8315104;28;20065;-55
2024/01/09 15:13:00;;;;;;;10.02;5.22;;;;;;;1.01;56.48;101891.00;8318467;28;20041;-56
2024/01/09 15:17:00;;;;;;;12.25;5.68;;;;;;;0.92;56.20;101882.44;8317822;28;20045;-57
2024/01/09 15:21:00;;;;;;;15.52;4.63;;;;;;;0.88;56.55;101889.63;8318954;28;20465;-56
2024/01/09 15:25:01;;;;;;;11.88;4.95;;;;;;;0.89;56.17;101885.19;8308842;28;20095;-57
2024/01/09 15:29:02;;;;;;;10.30;4.88;;;;;;;0.91;55.78;101899.34;8313267;28;20046;-56
2024/01/09 15:33:07;;;;;;;9.82;5.20;;;;;;;0.80;56.46;101896.09;8308944;28;20037;-57
2024/01/09 15:37:11;;;;;;;8.80;4.72;;;;;;;0.71;56.90;101901.69;8303535;28;20037;-56
2024/01/09 15:41:12;;;;;;;11.25;5.32;;;;;;;0.69;56.72;101917.72;8275753;28;20469;-56
2024/01/09 15:45:12;;;;;;;9.88;4.78;;;;;;;0.67;56.30;101913.34;8266171;28;20108;-58
2024/01/09 15:49:14;;;;;;;9.63;5.15;;;;;;;0.64;56.30;101910.78;8310145;28;20064;-58
2024/01/09 15:53:14;;;;;;;13.55;4.68;;;;;;;0.58;56.36;101916.28;8302162;28;20186;-57
2024/01/09 15:57:14;;;;;;;13.73;5.40;;;;;;;0.48;57.00;101909.44;8299683;28;20050;-58
2024/01/09 16:01:19;;;;;;;11.65;5.38;;;;;;;0.46;56.47;101903.31;8300713;28;20085;-56
2024/01/09 16:05:19;;;;;;;;;;;;;;;0.41;56.64;101903.44;8296881;28;20144;-58
2024/01/09 16:09:19;;;;;;;9.90;4.70;;;;;;;0.41;56.65;101897.25;8301040;28;19921;-58
2024/01/09 16:13:20;;;;;;;11.23;4.47;;;;;;;0.31;56.90;101895.78;8299414;28;20581;-57
2024/01/09 16:17:20;;;;;;;10.43;4.65;;;;;;;0.27;56.48;101900.28;8303469;28;20042;-57
2024/01/09 16:21:21;;;;;;;10.25;4.68;;;;;;;0.21;56.68;101894.28;8300610;28;20046;-56
2024/01/09 16:25:21;;;;;;;9.10;4.63;;;;;;;0.13;56.80;101909.56;8301178;28;20470;-57
2024/01/09 16:29:21;;;;;;;13.65;4.97;;;;;;;0.03;56.45;101917.78;8310982;28;20057;-57
2024/01/09 16:33:22;;;;;;;11.63;4.47;;;;;;;0.05;56.60;101917.75;8299712;28;20037;-58
2024/01/09 16:37:22;;;;;;;10.63;4.55;;;;;;;0.07;56.41;101917.69;8308798;28;20526;-56
2024/01/09 16:41:23;;;;;;;6.95;3.83;;;;;;;-0.04;56.39;101916.22;8299041;28;20068;-56
2024/01/09 16:45:23;;;;;;;10.82;4.50;;;;;;;-0.08;56.94;101927.84;8293894;28;20121;-57
2024/01/09 16:49:24;;;;;;;12.48;4.38;;;;;;;-0.16;56.96;101926.25;8267198;28;20492;-59
2024/01/09 16:53:24;;;;;;;11.50;4.53;;;;;;;-0.20;57.59;101920.19;8307481;28;20479;-57
2024/01/09 16:57:25;;;;;;;10.90;4.35;;;;;;;-0.21;56.89;101933.50;8306887;28;20069;-56
2024/01/09 17:01:27;;;;;;;7.93;3.95;;;;;;;-0.27;56.77;101921.22;8296000;28;20034;-57
2024/01/09 17:05:27;;;;;;;8.77;4.43;;;;;;;-0.32;56.85;101917.81;8297454;28;20657;-57
2024/01/09 17:09:30;;;;;;;9.95;4.18;;;;;;;-0.32;56.66;101916.94;8300492;28;20635;-58
2024/01/09 17:13:30;;;;;;;8.88;4.82;;;;;;;-0.40;56.21;101922.44;8302992;28;20048;-57
2024/01/09 17:17:31;;;;;;;8.15;4.50;;;;;;;-0.45;56.76;101913.69;8300211;28;20038;-56
2024/01/09 17:21:32;;;;;;;9.30;4.65;;;;;;;-0.37;56.23;101933.00;8296474;28;20093;-57
2024/01/09 17:25:32;;;;;;;12.55;4.82;;;;;;;-0.43;56.55;101922.50;8298140;28;20048;-57
2024/01/09 17:29:33;;;;;;;12.23;4.63;;;;;;;-0.47;57.50;101926.16;8300667;28;20396;-57
2024/01/09 17:33:34;;;;;;;8.90;4.13;;;;;;;-0.60;57.60;101919.41;8315341;28;20503;-57
2024/01/09 17:37:36;;;;;;;10.90;4.28;;;;;;;-0.70;57.99;101925.81;8299111;28;20037;-56
2024/01/09 17:41:37;;;;;;;9.25;4.88;;;;;;;-0.84;58.35;101912.00;8316798;28;20030;-55
2024/01/09 17:45:39;;;;;;;14.80;4.60;;;;;;;-0.84;57.68;101935.91;8298813;28;20045;-56
2024/01/09 17:49:39;;;;;;;11.60;4.80;;;;;;;-0.90;57.52;101925.41;8299135;28;20523;-56
2024/01/09 17:53:39;;;;;;;11.02;5.30;;;;;;;-0.92;57.58;101927.22;8302566;28;20412;-55
2024/01/09 17:57:41;;;;;;;9.45;4.75;;;;;;;-0.96;57.33;101919.38;8301786;28;20041;-56
2024/01/09 18:01:44;;;;;;;14.23;5.18;;;;;;;-0.97;57.83;101923.81;8303819;28;20069;-57
2024/01/09 18:05:48;;;;;;;7.43;4.55;;;;;;;-1.02;58.87;101932.78;8301675;28;20561;-57
2024/01/09 18:09:49;;;;;;;;;;;;;;;-1.09;59.39;101929.41;8308876;28;20049;-55
2024/01/09 18:13:52;;;;;;;12.13;5.40;;;;;;;-1.11;58.92;101925.00;8300802;28;19999;-55
2024/01/09 18:17:53;;;;;;;13.90;5.95;;;;;;;-1.12;58.59;101934.75;8300785;28;20040;-56
2024/01/09 18:21:55;;;;;;;10.95;5.40;;;;;;;-1.16;59.24;101930.41;8299974;28;20041;-56
2024/01/09 18:25:56;;;;;;;13.70;5.82;;;;;;;-1.15;58.37;101933.94;8314124;28;20033;-56
2024/01/09 18:29:57;;;;;;;11.82;6.43;;;;;;;-1.21;58.60;101937.63;8314630;28;20380;-57
2024/01/09 18:33:58;;;;;;;12.30;6.28;;;;;;;-1.22;58.90;101938.50;8314215;28;20423;-56
2024/01/09 18:38:00;;;;;;;14.23;6.20;;;;;;;-1.29;58.84;101942.19;8314413;28;20415;-56